Página principal
METAR-TAF:

METAR-TAF

Aeroportos :

Tunes, Tunísia

Aeroporto Internacional de Túnis-Cartago

latitude: 36-50N, longitude: 010-14E, altura: 3 m

Observação actual do tempo

O boletim foi feito há 31 minutos, às 19:30 UTC
Vento 4 kt de sudeste, variando entre este e su-sudeste
Temperatura 13°C
Humidade 72%
Pressão 1017 hPa
Visibilidade 10 km ou mais
Poucas nuvensa uma altura de 3300 ft

METAR: DTTA 121930Z 13004KT 100V160 9999 FEW033 13/08 Q1017 NOSIG

Hora: 21:01 (20:01 UTC)

Previsão

O boletim foi feito há 2 horas e 51 minutos, às 17:10 UTC
Previsão válida de 12 às 18 UTC a 13 às 18 UTC
Vento 4 kt de es-sudeste
Visibilidade 10 km ou mais
sem nuvens abaixo de 1500 metros e sem cumulonimbus
Tornando-se
de 13 às 02 UTC a 13 às 04 UTC
Vento 14 kt de nor-noroeste
Visibilidade 10 km ou mais
Nuvens dispersasa uma altura de 2300 ft

TAF: DTTA 121710Z 1218/1318 11004KT CAVOK BECMG 1302/1304 34014KT 9999 SCT023

Observações e previsões do tempo de mais de 4000 aeroportos (mensagens METAR e TAF).

As estações disponíveis são os pontos amarelos e vermelhos sobre o mapa.

Mova o rato sobre o mapa para ver o nome da estação.

Depois clique no ponto para visualizar as observações e previsões meteorológicas.

Para alterar o mapa : clique nos botões verdes com uma cruz preta para aumentar o zoom; no botão verde com uma pitada de zoom; ou nas setas verdes para mapas adjacentes.


METAR-TAF: